RJOA/HIJ METAR and TAF weather

Enter ICAO airport designator
Station Type Date Time Source
RJOA METAR 2020/09/19 03:00 UTC NOAA

RJOA 190300Z 27007KT 170V330 9999 FEW030 BKN/// 23/12 Q1016


Station Type Date Time Source
RJOA Decoded METAR 2020/09/19 03:00 UTC NOAA

Hiroshima Airport, Japan (RJOA) 34-26N 132-55E 334M
Sep 18, 2020 - 11:00 PM EDT / 2020.09.19 0300 UTC
Wind: from the W (270 degrees) at 8 MPH (7 KT) (direction variable):0
Visibility: greater than 7 mile(s):0
Sky conditions: mostly cloudy
Temperature: 73 F (23 C)
Dew Point: 53 F (12 C)
Relative Humidity: 49%
Pressure (altimeter): 30.00 in. Hg (1016 hPa)
ob: RJOA 190300Z 27007KT 170V330 9999 FEW030 BKN/// 23/12 Q1016
cycle: 3

Station Type Date Time Source
RJOA TAF 2020/09/19 01:43 UTC NOAA

TAF
AMD RJOA 190134Z 1901/2006 34010KT 9999 FEW030
BECMG 2000/2003 21006KT

Example: see airport list